sensor_id;sensor_type;location;lat;lon;timestamp;P1;durP1;ratioP1;P2;durP2;ratioP2
23121;SDS011;11730;51.248;22.534;2023-06-24T00:00:38;27.17;;;18.98;;
23121;SDS011;11730;51.248;22.534;2023-06-24T00:03:04;30.25;;;19.00;;
23121;SDS011;11730;51.248;22.534;2023-06-24T00:05:34;30.33;;;19.02;;
23121;SDS011;11730;51.248;22.534;2023-06-24T00:08:01;28.42;;;18.75;;
23121;SDS011;11730;51.248;22.534;2023-06-24T00:10:28;28.10;;;18.67;;
23121;SDS011;11730;51.248;22.534;2023-06-24T00:12:56;28.20;;;19.25;;
23121;SDS011;11730;51.248;22.534;2023-06-24T00:15:27;26.30;;;18.50;;
23121;SDS011;11730;51.248;22.534;2023-06-24T00:17:54;26.70;;;17.70;;
23121;SDS011;11730;51.248;22.534;2023-06-24T00:20:32;27.73;;;18.52;;
23121;SDS011;11730;51.248;22.534;2023-06-24T00:23:00;24.45;;;16.63;;
23121;SDS011;11730;51.248;22.534;2023-06-24T00:25:28;25.73;;;17.58;;
23121;SDS011;11730;51.248;22.534;2023-06-24T00:27:57;19.48;;;16.10;;
23121;SDS011;11730;51.248;22.534;2023-06-24T00:30:25;21.80;;;14.85;;
23121;SDS011;11730;51.248;22.534;2023-06-24T00:32:53;21.52;;;15.23;;
23121;SDS011;11730;51.248;22.534;2023-06-24T00:35:20;19.73;;;13.73;;
23121;SDS011;11730;51.248;22.534;2023-06-24T00:37:47;22.10;;;12.52;;
23121;SDS011;11730;51.248;22.534;2023-06-24T00:40:15;18.27;;;11.77;;
23121;SDS011;11730;51.248;22.534;2023-06-24T00:42:44;14.95;;;11.20;;
23121;SDS011;11730;51.248;22.534;2023-06-24T00:45:12;15.15;;;10.13;;
23121;SDS011;11730;51.248;22.534;2023-06-24T00:47:40;16.83;;;10.13;;
23121;SDS011;11730;51.248;22.534;2023-06-24T00:50:07;14.70;;;8.93;;
23121;SDS011;11730;51.248;22.534;2023-06-24T00:52:38;12.15;;;8.40;;
23121;SDS011;11730;51.248;22.534;2023-06-24T00:55:12;9.68;;;7.43;;
23121;SDS011;11730;51.248;22.534;2023-06-24T01:00:20;12.75;;;7.97;;
23121;SDS011;11730;51.248;22.534;2023-06-24T01:02:49;12.90;;;7.65;;
23121;SDS011;11730;51.248;22.534;2023-06-24T01:05:18;12.52;;;7.40;;
23121;SDS011;11730;51.248;22.534;2023-06-24T01:07:50;15.93;;;7.83;;
23121;SDS011;11730;51.248;22.534;2023-06-24T01:10:23;17.40;;;7.78;;
23121;SDS011;11730;51.248;22.534;2023-06-24T01:12:50;15.60;;;8.20;;
23121;SDS011;11730;51.248;22.534;2023-06-24T01:15:18;12.20;;;7.22;;
23121;SDS011;11730;51.248;22.534;2023-06-24T01:17:59;16.30;;;8.00;;
23121;SDS011;11730;51.248;22.534;2023-06-24T01:20:45;10.88;;;7.68;;
23121;SDS011;11730;51.248;22.534;2023-06-24T01:31:52;9.13;;;6.72;;
23121;SDS011;11730;51.248;22.534;2023-06-24T01:34:37;9.10;;;6.82;;
23121;SDS011;11730;51.248;22.534;2023-06-24T01:42:37;16.00;;;9.27;;
23121;SDS011;11730;51.248;22.534;2023-06-24T01:45:10;12.40;;;7.03;;
23121;SDS011;11730;51.248;22.534;2023-06-24T01:47:40;12.88;;;6.40;;
23121;SDS011;11730;51.248;22.534;2023-06-24T01:50:11;11.88;;;6.93;;
23121;SDS011;11730;51.248;22.534;2023-06-24T01:52:41;13.55;;;6.85;;
23121;SDS011;11730;51.248;22.534;2023-06-24T01:55:11;14.90;;;6.25;;
23121;SDS011;11730;51.248;22.534;2023-06-24T01:57:42;12.70;;;6.50;;
23121;SDS011;11730;51.248;22.534;2023-06-24T02:00:11;11.48;;;6.47;;
23121;SDS011;11730;51.248;22.534;2023-06-24T02:02:39;12.43;;;7.15;;
23121;SDS011;11730;51.248;22.534;2023-06-24T02:05:06;9.30;;;6.20;;
23121;SDS011;11730;51.248;22.534;2023-06-24T02:07:35;14.30;;;8.27;;
23121;SDS011;11730;51.248;22.534;2023-06-24T02:10:04;9.30;;;6.35;;
23121;SDS011;11730;51.248;22.534;2023-06-24T02:12:32;9.40;;;6.25;;
23121;SDS011;11730;51.248;22.534;2023-06-24T02:15:00;11.73;;;6.10;;
23121;SDS011;11730;51.248;22.534;2023-06-24T02:17:28;11.80;;;5.93;;
23121;SDS011;11730;51.248;22.534;2023-06-24T02:19:56;11.10;;;6.25;;
23121;SDS011;11730;51.248;22.534;2023-06-24T02:22:24;11.85;;;6.20;;
23121;SDS011;11730;51.248;22.534;2023-06-24T02:24:51;10.23;;;6.22;;
23121;SDS011;11730;51.248;22.534;2023-06-24T02:27:20;9.20;;;5.82;;
23121;SDS011;11730;51.248;22.534;2023-06-24T02:29:47;7.70;;;5.90;;
23121;SDS011;11730;51.248;22.534;2023-06-24T02:32:15;8.02;;;5.55;;
23121;SDS011;11730;51.248;22.534;2023-06-24T02:34:42;8.27;;;5.70;;
23121;SDS011;11730;51.248;22.534;2023-06-24T02:37:09;11.25;;;6.07;;
23121;SDS011;11730;51.248;22.534;2023-06-24T02:39:37;10.23;;;5.20;;
23121;SDS011;11730;51.248;22.534;2023-06-24T02:42:10;10.70;;;6.15;;
23121;SDS011;11730;51.248;22.534;2023-06-24T02:44:41;14.73;;;6.07;;
23121;SDS011;11730;51.248;22.534;2023-06-24T02:47:09;10.25;;;4.93;;
23121;SDS011;11730;51.248;22.534;2023-06-24T02:49:39;11.02;;;5.32;;
23121;SDS011;11730;51.248;22.534;2023-06-24T02:52:06;8.95;;;5.85;;
23121;SDS011;11730;51.248;22.534;2023-06-24T02:54:33;10.40;;;5.32;;
23121;SDS011;11730;51.248;22.534;2023-06-24T02:57:05;10.18;;;5.82;;
23121;SDS011;11730;51.248;22.534;2023-06-24T02:59:32;10.60;;;5.88;;
23121;SDS011;11730;51.248;22.534;2023-06-24T03:02:00;10.50;;;5.35;;
23121;SDS011;11730;51.248;22.534;2023-06-24T03:04:27;9.98;;;5.85;;
23121;SDS011;11730;51.248;22.534;2023-06-24T03:06:54;8.05;;;4.95;;
23121;SDS011;11730;51.248;22.534;2023-06-24T03:09:22;8.50;;;5.55;;
23121;SDS011;11730;51.248;22.534;2023-06-24T03:11:49;10.30;;;5.68;;
23121;SDS011;11730;51.248;22.534;2023-06-24T03:14:16;10.73;;;5.38;;
23121;SDS011;11730;51.248;22.534;2023-06-24T03:16:44;11.25;;;5.50;;
23121;SDS011;11730;51.248;22.534;2023-06-24T03:19:11;8.18;;;5.15;;
23121;SDS011;11730;51.248;22.534;2023-06-24T03:21:38;8.75;;;5.55;;
23121;SDS011;11730;51.248;22.534;2023-06-24T03:24:05;8.90;;;5.90;;
23121;SDS011;11730;51.248;22.534;2023-06-24T03:26:34;9.00;;;5.28;;
23121;SDS011;11730;51.248;22.534;2023-06-24T03:29:02;9.02;;;5.47;;
23121;SDS011;11730;51.248;22.534;2023-06-24T03:31:29;11.52;;;6.28;;
23121;SDS011;11730;51.248;22.534;2023-06-24T03:33:56;12.30;;;5.10;;
23121;SDS011;11730;51.248;22.534;2023-06-24T03:36:23;7.72;;;5.05;;
23121;SDS011;11730;51.248;22.534;2023-06-24T03:38:51;8.27;;;4.65;;
23121;SDS011;11730;51.248;22.534;2023-06-24T03:41:17;13.15;;;6.05;;
23121;SDS011;11730;51.248;22.534;2023-06-24T03:43:44;7.38;;;5.15;;
23121;SDS011;11730;51.248;22.534;2023-06-24T03:46:12;9.38;;;5.03;;
23121;SDS011;11730;51.248;22.534;2023-06-24T03:48:39;12.52;;;5.60;;
23121;SDS011;11730;51.248;22.534;2023-06-24T03:51:06;8.68;;;6.05;;
23121;SDS011;11730;51.248;22.534;2023-06-24T03:53:33;11.73;;;5.07;;
23121;SDS011;11730;51.248;22.534;2023-06-24T03:56:01;10.30;;;5.57;;
23121;SDS011;11730;51.248;22.534;2023-06-24T03:58:28;8.60;;;5.05;;
23121;SDS011;11730;51.248;22.534;2023-06-24T04:00:55;8.68;;;5.47;;
23121;SDS011;11730;51.248;22.534;2023-06-24T04:03:23;8.07;;;5.15;;
23121;SDS011;11730;51.248;22.534;2023-06-24T04:05:53;7.63;;;5.30;;
23121;SDS011;11730;51.248;22.534;2023-06-24T04:08:21;9.93;;;5.18;;
23121;SDS011;11730;51.248;22.534;2023-06-24T04:10:48;12.15;;;5.15;;
23121;SDS011;11730;51.248;22.534;2023-06-24T04:13:16;8.50;;;5.32;;
23121;SDS011;11730;51.248;22.534;2023-06-24T04:15:43;10.95;;;5.93;;
23121;SDS011;11730;51.248;22.534;2023-06-24T04:18:10;8.27;;;5.15;;
23121;SDS011;11730;51.248;22.534;2023-06-24T04:20:37;9.38;;;5.00;;
23121;SDS011;11730;51.248;22.534;2023-06-24T04:23:05;8.90;;;5.53;;
23121;SDS011;11730;51.248;22.534;2023-06-24T04:25:32;8.85;;;5.65;;
23121;SDS011;11730;51.248;22.534;2023-06-24T04:28:00;7.95;;;5.55;;
23121;SDS011;11730;51.248;22.534;2023-06-24T04:30:27;8.60;;;5.40;;
23121;SDS011;11730;51.248;22.534;2023-06-24T04:32:55;16.98;;;5.75;;
23121;SDS011;11730;51.248;22.534;2023-06-24T04:35:22;9.70;;;5.68;;
23121;SDS011;11730;51.248;22.534;2023-06-24T04:37:48;9.10;;;5.32;;
23121;SDS011;11730;51.248;22.534;2023-06-24T04:40:17;9.95;;;5.45;;
23121;SDS011;11730;51.248;22.534;2023-06-24T04:42:45;14.38;;;5.32;;
23121;SDS011;11730;51.248;22.534;2023-06-24T04:45:12;7.78;;;5.35;;
23121;SDS011;11730;51.248;22.534;2023-06-24T04:47:40;7.57;;;5.13;;
23121;SDS011;11730;51.248;22.534;2023-06-24T04:50:07;7.05;;;5.13;;
23121;SDS011;11730;51.248;22.534;2023-06-24T04:52:39;11.55;;;5.15;;
23121;SDS011;11730;51.248;22.534;2023-06-24T04:55:06;10.20;;;5.28;;
23121;SDS011;11730;51.248;22.534;2023-06-24T04:57:33;11.45;;;5.32;;
23121;SDS011;11730;51.248;22.534;2023-06-24T05:00:00;8.15;;;5.32;;
23121;SDS011;11730;51.248;22.534;2023-06-24T05:02:27;8.27;;;5.13;;
23121;SDS011;11730;51.248;22.534;2023-06-24T05:04:55;9.02;;;5.55;;
23121;SDS011;11730;51.248;22.534;2023-06-24T05:07:22;14.23;;;5.18;;
23121;SDS011;11730;51.248;22.534;2023-06-24T05:09:49;10.80;;;5.45;;
23121;SDS011;11730;51.248;22.534;2023-06-24T05:12:17;8.00;;;5.30;;
23121;SDS011;11730;51.248;22.534;2023-06-24T05:14:48;7.50;;;5.05;;
23121;SDS011;11730;51.248;22.534;2023-06-24T05:17:16;8.60;;;5.13;;
23121;SDS011;11730;51.248;22.534;2023-06-24T05:19:45;7.72;;;4.63;;
23121;SDS011;11730;51.248;22.534;2023-06-24T05:22:12;22.33;;;5.90;;
23121;SDS011;11730;51.248;22.534;2023-06-24T05:24:40;7.57;;;5.57;;
23121;SDS011;11730;51.248;22.534;2023-06-24T05:27:07;9.52;;;4.90;;
23121;SDS011;11730;51.248;22.534;2023-06-24T05:29:34;11.50;;;5.43;;
23121;SDS011;11730;51.248;22.534;2023-06-24T05:32:01;8.77;;;5.20;;
23121;SDS011;11730;51.248;22.534;2023-06-24T05:34:30;12.05;;;7.80;;
23121;SDS011;11730;51.248;22.534;2023-06-24T05:36:57;10.30;;;5.30;;
23121;SDS011;11730;51.248;22.534;2023-06-24T05:39:24;11.90;;;7.95;;
23121;SDS011;11730;51.248;22.534;2023-06-24T05:41:52;17.33;;;11.82;;
23121;SDS011;11730;51.248;22.534;2023-06-24T05:44:20;9.75;;;5.65;;
23121;SDS011;11730;51.248;22.534;2023-06-24T05:46:47;8.93;;;5.10;;
23121;SDS011;11730;51.248;22.534;2023-06-24T05:49:13;8.77;;;5.50;;
23121;SDS011;11730;51.248;22.534;2023-06-24T05:51:40;9.98;;;5.55;;
23121;SDS011;11730;51.248;22.534;2023-06-24T05:54:07;8.15;;;5.07;;
23121;SDS011;11730;51.248;22.534;2023-06-24T05:56:35;8.95;;;5.60;;
23121;SDS011;11730;51.248;22.534;2023-06-24T05:59:05;11.98;;;6.38;;
23121;SDS011;11730;51.248;22.534;2023-06-24T06:01:32;9.85;;;5.47;;
23121;SDS011;11730;51.248;22.534;2023-06-24T06:03:59;7.60;;;6.05;;
23121;SDS011;11730;51.248;22.534;2023-06-24T06:06:26;8.27;;;5.03;;
23121;SDS011;11730;51.248;22.534;2023-06-24T06:08:54;26.10;;;17.95;;
23121;SDS011;11730;51.248;22.534;2023-06-24T06:11:21;7.53;;;4.70;;
23121;SDS011;11730;51.248;22.534;2023-06-24T06:13:48;15.93;;;6.80;;
23121;SDS011;11730;51.248;22.534;2023-06-24T06:16:16;6.85;;;4.85;;
23121;SDS011;11730;51.248;22.534;2023-06-24T06:18:44;11.00;;;5.68;;
23121;SDS011;11730;51.248;22.534;2023-06-24T06:21:12;10.98;;;5.28;;
23121;SDS011;11730;51.248;22.534;2023-06-24T06:23:38;10.38;;;4.57;;
23121;SDS011;11730;51.248;22.534;2023-06-24T06:26:06;9.63;;;4.88;;
23121;SDS011;11730;51.248;22.534;2023-06-24T06:28:33;9.15;;;4.80;;
23121;SDS011;11730;51.248;22.534;2023-06-24T06:31:00;7.45;;;4.82;;
23121;SDS011;11730;51.248;22.534;2023-06-24T06:33:27;9.27;;;5.25;;
23121;SDS011;11730;51.248;22.534;2023-06-24T06:35:54;10.50;;;5.20;;
23121;SDS011;11730;51.248;22.534;2023-06-24T06:38:21;12.55;;;5.90;;
23121;SDS011;11730;51.248;22.534;2023-06-24T06:40:48;6.88;;;4.47;;
23121;SDS011;11730;51.248;22.534;2023-06-24T06:43:15;7.55;;;5.03;;
23121;SDS011;11730;51.248;22.534;2023-06-24T06:45:42;9.27;;;4.60;;
23121;SDS011;11730;51.248;22.534;2023-06-24T06:48:09;12.70;;;6.10;;
23121;SDS011;11730;51.248;22.534;2023-06-24T06:50:36;8.55;;;4.57;;
23121;SDS011;11730;51.248;22.534;2023-06-24T06:53:03;11.38;;;6.72;;
23121;SDS011;11730;51.248;22.534;2023-06-24T06:55:30;10.70;;;6.45;;
23121;SDS011;11730;51.248;22.534;2023-06-24T06:57:57;6.30;;;4.68;;
23121;SDS011;11730;51.248;22.534;2023-06-24T07:00:24;6.03;;;4.00;;
23121;SDS011;11730;51.248;22.534;2023-06-24T07:02:51;5.32;;;4.30;;
23121;SDS011;11730;51.248;22.534;2023-06-24T07:05:18;10.80;;;5.95;;
23121;SDS011;11730;51.248;22.534;2023-06-24T07:07:46;7.65;;;4.53;;
23121;SDS011;11730;51.248;22.534;2023-06-24T07:10:13;9.38;;;5.82;;
23121;SDS011;11730;51.248;22.534;2023-06-24T07:12:40;7.00;;;4.97;;
23121;SDS011;11730;51.248;22.534;2023-06-24T07:15:07;5.70;;;4.68;;
23121;SDS011;11730;51.248;22.534;2023-06-24T07:17:38;8.00;;;4.72;;
23121;SDS011;11730;51.248;22.534;2023-06-24T07:20:06;6.25;;;4.18;;
23121;SDS011;11730;51.248;22.534;2023-06-24T07:22:33;4.90;;;3.80;;
23121;SDS011;11730;51.248;22.534;2023-06-24T07:25:00;5.53;;;3.88;;
23121;SDS011;11730;51.248;22.534;2023-06-24T07:27:28;8.07;;;4.93;;
23121;SDS011;11730;51.248;22.534;2023-06-24T07:29:54;10.90;;;7.40;;
23121;SDS011;11730;51.248;22.534;2023-06-24T07:32:21;7.90;;;4.97;;
23121;SDS011;11730;51.248;22.534;2023-06-24T07:34:48;8.40;;;4.47;;
23121;SDS011;11730;51.248;22.534;2023-06-24T07:37:15;6.55;;;4.78;;
23121;SDS011;11730;51.248;22.534;2023-06-24T07:39:50;4.93;;;3.70;;
23121;SDS011;11730;51.248;22.534;2023-06-24T07:42:17;7.72;;;4.68;;
23121;SDS011;11730;51.248;22.534;2023-06-24T07:44:47;6.10;;;3.85;;
23121;SDS011;11730;51.248;22.534;2023-06-24T07:47:16;7.90;;;4.45;;
23121;SDS011;11730;51.248;22.534;2023-06-24T07:49:44;10.38;;;7.10;;
23121;SDS011;11730;51.248;22.534;2023-06-24T07:52:11;7.68;;;4.80;;
23121;SDS011;11730;51.248;22.534;2023-06-24T07:54:38;7.78;;;5.05;;
23121;SDS011;11730;51.248;22.534;2023-06-24T07:57:06;6.68;;;3.65;;
23121;SDS011;11730;51.248;22.534;2023-06-24T07:59:33;6.53;;;4.70;;
23121;SDS011;11730;51.248;22.534;2023-06-24T08:02:00;8.65;;;4.05;;
23121;SDS011;11730;51.248;22.534;2023-06-24T08:04:27;7.97;;;4.05;;
23121;SDS011;11730;51.248;22.534;2023-06-24T08:06:54;5.65;;;4.43;;
23121;SDS011;11730;51.248;22.534;2023-06-24T08:09:22;7.38;;;4.32;;
23121;SDS011;11730;51.248;22.534;2023-06-24T08:11:49;8.23;;;3.70;;
23121;SDS011;11730;51.248;22.534;2023-06-24T08:14:16;6.13;;;4.00;;
23121;SDS011;11730;51.248;22.534;2023-06-24T08:16:43;6.55;;;3.47;;
23121;SDS011;11730;51.248;22.534;2023-06-24T08:19:11;4.53;;;3.65;;
23121;SDS011;11730;51.248;22.534;2023-06-24T08:21:38;8.13;;;4.43;;
23121;SDS011;11730;51.248;22.534;2023-06-24T08:24:07;5.20;;;4.13;;
23121;SDS011;11730;51.248;22.534;2023-06-24T08:26:34;8.93;;;3.80;;
23121;SDS011;11730;51.248;22.534;2023-06-24T08:29:01;5.10;;;4.15;;
23121;SDS011;11730;51.248;22.534;2023-06-24T08:31:30;6.72;;;3.97;;
23121;SDS011;11730;51.248;22.534;2023-06-24T08:33:58;4.63;;;3.50;;
23121;SDS011;11730;51.248;22.534;2023-06-24T08:36:27;4.00;;;2.78;;
23121;SDS011;11730;51.248;22.534;2023-06-24T08:38:54;4.90;;;3.38;;
23121;SDS011;11730;51.248;22.534;2023-06-24T08:41:22;4.53;;;3.40;;
23121;SDS011;11730;51.248;22.534;2023-06-24T08:43:51;7.95;;;3.55;;
23121;SDS011;11730;51.248;22.534;2023-06-24T08:46:19;5.47;;;3.13;;
23121;SDS011;11730;51.248;22.534;2023-06-24T08:48:51;4.63;;;3.65;;
23121;SDS011;11730;51.248;22.534;2023-06-24T08:51:25;7.82;;;5.10;;
23121;SDS011;11730;51.248;22.534;2023-06-24T08:53:55;4.18;;;3.35;;
23121;SDS011;11730;51.248;22.534;2023-06-24T08:56:24;6.45;;;3.70;;
23121;SDS011;11730;51.248;22.534;2023-06-24T08:58:52;6.50;;;4.13;;
23121;SDS011;11730;51.248;22.534;2023-06-24T09:01:19;6.03;;;2.90;;
23121;SDS011;11730;51.248;22.534;2023-06-24T09:03:49;4.88;;;3.72;;
23121;SDS011;11730;51.248;22.534;2023-06-24T09:06:17;5.88;;;3.85;;
23121;SDS011;11730;51.248;22.534;2023-06-24T09:09:18;5.32;;;3.40;;
23121;SDS011;11730;51.248;22.534;2023-06-24T09:11:50;4.03;;;3.15;;
23121;SDS011;11730;51.248;22.534;2023-06-24T09:14:18;4.45;;;3.10;;
23121;SDS011;11730;51.248;22.534;2023-06-24T09:16:58;7.70;;;6.35;;
23121;SDS011;11730;51.248;22.534;2023-06-24T09:19:28;4.07;;;3.20;;
23121;SDS011;11730;51.248;22.534;2023-06-24T09:21:55;4.18;;;2.83;;
23121;SDS011;11730;51.248;22.534;2023-06-24T09:24:27;6.57;;;2.95;;
23121;SDS011;11730;51.248;22.534;2023-06-24T09:26:57;6.60;;;3.53;;
23121;SDS011;11730;51.248;22.534;2023-06-24T09:29:35;5.78;;;3.30;;
23121;SDS011;11730;51.248;22.534;2023-06-24T09:32:06;6.97;;;3.05;;
23121;SDS011;11730;51.248;22.534;2023-06-24T09:34:33;4.53;;;3.00;;
23121;SDS011;11730;51.248;22.534;2023-06-24T09:37:01;6.07;;;4.10;;
23121;SDS011;11730;51.248;22.534;2023-06-24T09:39:28;4.72;;;3.60;;
23121;SDS011;11730;51.248;22.534;2023-06-24T09:42:05;5.72;;;3.65;;
23121;SDS011;11730;51.248;22.534;2023-06-24T09:44:33;6.70;;;3.10;;
23121;SDS011;11730;51.248;22.534;2023-06-24T09:47:00;5.03;;;3.33;;
23121;SDS011;11730;51.248;22.534;2023-06-24T09:49:28;3.95;;;3.10;;
23121;SDS011;11730;51.248;22.534;2023-06-24T09:51:56;3.53;;;2.63;;
23121;SDS011;11730;51.248;22.534;2023-06-24T09:54:28;19.70;;;16.17;;
23121;SDS011;11730;51.248;22.534;2023-06-24T09:57:01;20.17;;;15.35;;
23121;SDS011;11730;51.248;22.534;2023-06-24T09:59:30;7.60;;;4.93;;
23121;SDS011;11730;51.248;22.534;2023-06-24T10:02:00;7.43;;;5.18;;
23121;SDS011;11730;51.248;22.534;2023-06-24T10:04:28;5.07;;;3.33;;
23121;SDS011;11730;51.248;22.534;2023-06-24T10:06:56;3.80;;;3.13;;
23121;SDS011;11730;51.248;22.534;2023-06-24T10:09:24;6.03;;;3.55;;
23121;SDS011;11730;51.248;22.534;2023-06-24T10:11:51;6.25;;;3.38;;
23121;SDS011;11730;51.248;22.534;2023-06-24T10:14:18;5.28;;;3.25;;
23121;SDS011;11730;51.248;22.534;2023-06-24T10:16:45;3.78;;;3.08;;
23121;SDS011;11730;51.248;22.534;2023-06-24T10:19:18;5.85;;;3.00;;
23121;SDS011;11730;51.248;22.534;2023-06-24T10:24:31;6.70;;;3.33;;
23121;SDS011;11730;51.248;22.534;2023-06-24T10:29:34;7.72;;;3.33;;
23121;SDS011;11730;51.248;22.534;2023-06-24T10:32:02;5.18;;;3.13;;
23121;SDS011;11730;51.248;22.534;2023-06-24T10:34:40;8.68;;;3.50;;
23121;SDS011;11730;51.248;22.534;2023-06-24T10:37:09;4.28;;;3.00;;
23121;SDS011;11730;51.248;22.534;2023-06-24T10:39:57;6.18;;;3.20;;
23121;SDS011;11730;51.248;22.534;2023-06-24T10:50:08;6.45;;;2.78;;
23121;SDS011;11730;51.248;22.534;2023-06-24T10:52:40;7.03;;;2.90;;
23121;SDS011;11730;51.248;22.534;2023-06-24T10:55:08;3.72;;;3.17;;
23121;SDS011;11730;51.248;22.534;2023-06-24T10:57:35;6.32;;;3.00;;
23121;SDS011;11730;51.248;22.534;2023-06-24T11:00:03;5.82;;;3.15;;
23121;SDS011;11730;51.248;22.534;2023-06-24T11:02:30;8.27;;;4.88;;
23121;SDS011;11730;51.248;22.534;2023-06-24T11:04:58;4.57;;;3.00;;
23121;SDS011;11730;51.248;22.534;2023-06-24T11:07:29;5.68;;;3.03;;
23121;SDS011;11730;51.248;22.534;2023-06-24T11:10:22;4.47;;;2.60;;
23121;SDS011;11730;51.248;22.534;2023-06-24T11:12:47;4.40;;;3.30;;
23121;SDS011;11730;51.248;22.534;2023-06-24T11:15:14;3.60;;;2.50;;
23121;SDS011;11730;51.248;22.534;2023-06-24T11:17:41;3.80;;;2.67;;
23121;SDS011;11730;51.248;22.534;2023-06-24T11:22:39;5.95;;;2.95;;
23121;SDS011;11730;51.248;22.534;2023-06-24T11:25:17;5.38;;;3.20;;
23121;SDS011;11730;51.248;22.534;2023-06-24T11:27:45;35.13;;;28.35;;
23121;SDS011;11730;51.248;22.534;2023-06-24T11:30:12;4.97;;;3.60;;
23121;SDS011;11730;51.248;22.534;2023-06-24T11:32:43;11.88;;;8.98;;
23121;SDS011;11730;51.248;22.534;2023-06-24T11:35:12;9.75;;;6.75;;
23121;SDS011;11730;51.248;22.534;2023-06-24T11:37:42;4.43;;;3.40;;
23121;SDS011;11730;51.248;22.534;2023-06-24T11:40:13;6.15;;;4.82;;
23121;SDS011;11730;51.248;22.534;2023-06-24T11:42:44;9.45;;;7.97;;
23121;SDS011;11730;51.248;22.534;2023-06-24T11:45:13;4.93;;;3.38;;
23121;SDS011;11730;51.248;22.534;2023-06-24T11:47:42;6.75;;;3.97;;
23121;SDS011;11730;51.248;22.534;2023-06-24T11:50:09;7.20;;;3.90;;
23121;SDS011;11730;51.248;22.534;2023-06-24T11:52:41;7.32;;;4.63;;
23121;SDS011;11730;51.248;22.534;2023-06-24T11:57:49;13.32;;;8.45;;
23121;SDS011;11730;51.248;22.534;2023-06-24T12:00:22;8.27;;;4.70;;
23121;SDS011;11730;51.248;22.534;2023-06-24T12:02:52;10.27;;;6.93;;
23121;SDS011;11730;51.248;22.534;2023-06-24T12:05:28;7.75;;;5.25;;
23121;SDS011;11730;51.248;22.534;2023-06-24T12:07:56;9.68;;;5.28;;
23121;SDS011;11730;51.248;22.534;2023-06-24T12:10:25;10.10;;;4.45;;
23121;SDS011;11730;51.248;22.534;2023-06-24T12:12:53;6.00;;;3.50;;
23121;SDS011;11730;51.248;22.534;2023-06-24T12:15:20;6.35;;;3.72;;
23121;SDS011;11730;51.248;22.534;2023-06-24T12:17:47;5.70;;;4.18;;
23121;SDS011;11730;51.248;22.534;2023-06-24T12:20:14;5.90;;;3.75;;
23121;SDS011;11730;51.248;22.534;2023-06-24T12:22:41;8.13;;;3.75;;
23121;SDS011;11730;51.248;22.534;2023-06-24T12:25:09;4.35;;;3.25;;
23121;SDS011;11730;51.248;22.534;2023-06-24T12:27:37;6.35;;;3.63;;
23121;SDS011;11730;51.248;22.534;2023-06-24T12:30:04;5.00;;;3.40;;
23121;SDS011;11730;51.248;22.534;2023-06-24T12:32:32;10.43;;;3.72;;
23121;SDS011;11730;51.248;22.534;2023-06-24T12:35:00;8.95;;;3.88;;
23121;SDS011;11730;51.248;22.534;2023-06-24T12:37:30;5.22;;;3.83;;
23121;SDS011;11730;51.248;22.534;2023-06-24T12:39:59;9.68;;;3.90;;
23121;SDS011;11730;51.248;22.534;2023-06-24T12:42:27;6.88;;;5.07;;
23121;SDS011;11730;51.248;22.534;2023-06-24T12:44:54;4.63;;;3.20;;
23121;SDS011;11730;51.248;22.534;2023-06-24T12:47:21;10.52;;;6.35;;
23121;SDS011;11730;51.248;22.534;2023-06-24T12:49:51;6.80;;;3.67;;
23121;SDS011;11730;51.248;22.534;2023-06-24T12:52:19;7.07;;;4.30;;
23121;SDS011;11730;51.248;22.534;2023-06-24T12:54:46;6.78;;;3.92;;
23121;SDS011;11730;51.248;22.534;2023-06-24T12:57:14;5.82;;;3.22;;
23121;SDS011;11730;51.248;22.534;2023-06-24T12:59:42;4.95;;;3.38;;
23121;SDS011;11730;51.248;22.534;2023-06-24T13:02:09;6.95;;;3.42;;
23121;SDS011;11730;51.248;22.534;2023-06-24T13:04:36;3.30;;;2.90;;
23121;SDS011;11730;51.248;22.534;2023-06-24T13:07:03;4.82;;;3.78;;
23121;SDS011;11730;51.248;22.534;2023-06-24T13:09:31;3.60;;;2.72;;
23121;SDS011;11730;51.248;22.534;2023-06-24T13:11:58;9.60;;;3.50;;
23121;SDS011;11730;51.248;22.534;2023-06-24T13:14:25;6.05;;;4.13;;
23121;SDS011;11730;51.248;22.534;2023-06-24T13:16:55;4.05;;;2.78;;
23121;SDS011;11730;51.248;22.534;2023-06-24T13:19:22;4.70;;;3.30;;
23121;SDS011;11730;51.248;22.534;2023-06-24T13:21:49;7.22;;;3.72;;
23121;SDS011;11730;51.248;22.534;2023-06-24T13:24:16;4.18;;;3.08;;
23121;SDS011;11730;51.248;22.534;2023-06-24T13:26:43;8.98;;;3.20;;
23121;SDS011;11730;51.248;22.534;2023-06-24T13:29:11;5.95;;;3.17;;
23121;SDS011;11730;51.248;22.534;2023-06-24T13:31:38;7.15;;;3.30;;
23121;SDS011;11730;51.248;22.534;2023-06-24T13:34:05;4.60;;;3.38;;
23121;SDS011;11730;51.248;22.534;2023-06-24T13:36:33;4.72;;;3.47;;
23121;SDS011;11730;51.248;22.534;2023-06-24T13:39:04;5.18;;;3.38;;
23121;SDS011;11730;51.248;22.534;2023-06-24T13:41:35;4.72;;;3.30;;
23121;SDS011;11730;51.248;22.534;2023-06-24T13:44:02;5.57;;;3.05;;
23121;SDS011;11730;51.248;22.534;2023-06-24T13:46:30;7.55;;;3.80;;
23121;SDS011;11730;51.248;22.534;2023-06-24T13:48:58;6.97;;;3.85;;
23121;SDS011;11730;51.248;22.534;2023-06-24T13:51:29;7.28;;;4.68;;
23121;SDS011;11730;51.248;22.534;2023-06-24T13:53:56;10.50;;;4.72;;
23121;SDS011;11730;51.248;22.534;2023-06-24T13:56:24;7.20;;;4.40;;
23121;SDS011;11730;51.248;22.534;2023-06-24T13:58:52;10.35;;;5.70;;
23121;SDS011;11730;51.248;22.534;2023-06-24T14:01:20;7.70;;;4.70;;
23121;SDS011;11730;51.248;22.534;2023-06-24T14:03:48;7.88;;;5.22;;
23121;SDS011;11730;51.248;22.534;2023-06-24T14:06:16;7.20;;;4.65;;
23121;SDS011;11730;51.248;22.534;2023-06-24T14:08:45;7.70;;;5.32;;
23121;SDS011;11730;51.248;22.534;2023-06-24T14:11:12;14.60;;;7.32;;
23121;SDS011;11730;51.248;22.534;2023-06-24T14:13:39;7.38;;;4.72;;
23121;SDS011;11730;51.248;22.534;2023-06-24T14:16:07;9.43;;;5.95;;
23121;SDS011;11730;51.248;22.534;2023-06-24T14:18:34;7.80;;;5.38;;
23121;SDS011;11730;51.248;22.534;2023-06-24T14:21:02;7.75;;;4.63;;
23121;SDS011;11730;51.248;22.534;2023-06-24T14:23:30;10.73;;;5.22;;
23121;SDS011;11730;51.248;22.534;2023-06-24T14:25:58;9.68;;;4.70;;
23121;SDS011;11730;51.248;22.534;2023-06-24T14:28:26;7.25;;;5.68;;
23121;SDS011;11730;51.248;22.534;2023-06-24T14:30:53;11.85;;;5.63;;
23121;SDS011;11730;51.248;22.534;2023-06-24T14:33:20;11.20;;;4.78;;
23121;SDS011;11730;51.248;22.534;2023-06-24T14:35:47;16.80;;;5.68;;
23121;SDS011;11730;51.248;22.534;2023-06-24T14:38:14;11.85;;;6.30;;
23121;SDS011;11730;51.248;22.534;2023-06-24T14:40:41;19.90;;;11.07;;
23121;SDS011;11730;51.248;22.534;2023-06-24T14:43:08;9.82;;;5.53;;
23121;SDS011;11730;51.248;22.534;2023-06-24T14:45:35;17.33;;;9.57;;
23121;SDS011;11730;51.248;22.534;2023-06-24T14:48:02;10.35;;;6.03;;
23121;SDS011;11730;51.248;22.534;2023-06-24T14:50:29;8.52;;;6.05;;
23121;SDS011;11730;51.248;22.534;2023-06-24T14:52:56;7.40;;;4.80;;
23121;SDS011;11730;51.248;22.534;2023-06-24T14:55:23;6.07;;;4.45;;
23121;SDS011;11730;51.248;22.534;2023-06-24T14:57:50;9.90;;;7.30;;
23121;SDS011;11730;51.248;22.534;2023-06-24T15:00:18;12.27;;;4.82;;
23121;SDS011;11730;51.248;22.534;2023-06-24T15:02:45;8.63;;;5.32;;
23121;SDS011;11730;51.248;22.534;2023-06-24T15:05:11;18.60;;;11.35;;
23121;SDS011;11730;51.248;22.534;2023-06-24T15:07:39;6.45;;;4.78;;
23121;SDS011;11730;51.248;22.534;2023-06-24T15:10:06;8.38;;;4.50;;